Time;durP1;ratioP1;P1;durP2;ratioP2;P2;SDS_P1;SDS_P2;PMS_P1;PMS_P2;Temp;Humidity;BMP_temperature;BMP_pressure;BME280_temperature;BME280_humidity;BME280_pressure;Samples;Min_cycle;Max_cycle;Signal;HPM_P1;HPM_P2
2022/11/11 09:41:13;;;;;;;2.30;1.40;;;11.40;99.90;;;;;;4928643;23;20750;-71
2022/11/11 09:43:47;;;;;;;2.17;1.33;;;11.50;99.90;;;;;;4917154;29;20213;-71
2022/11/11 09:46:32;;;;;;;2.30;1.33;;;11.60;99.90;;;;;;4917086;29;20220;-71
2022/11/11 09:49:24;;;;;;;2.13;1.20;;;11.50;99.90;;;;;;4916969;29;20234;-71
2022/11/11 09:51:55;;;;;;;2.00;1.20;;;11.70;99.90;;;;;;4917431;29;20209;-75
2022/11/11 09:54:31;;;;;;;1.73;1.00;;;11.70;99.90;;;;;;4916752;29;20577;-71
2022/11/11 09:57:04;;;;;;;2.33;1.20;;;11.70;99.90;;;;;;4917370;29;20209;-71
2022/11/11 09:59:39;;;;;;;1.50;0.93;;;11.90;99.90;;;;;;4917474;29;20206;-71
2022/11/11 10:02:14;;;;;;;1.33;0.77;;;12.00;99.90;;;;;;4917002;29;20616;-72
2022/11/11 10:04:52;;;;;;;2.03;1.10;;;12.10;99.90;;;;;;4917447;29;20220;-70
2022/11/11 10:07:28;;;;;;;2.00;1.17;;;12.20;99.90;;;;;;4916420;29;20240;-69
2022/11/11 10:10:02;;;;;;;1.90;0.93;;;12.20;99.90;;;;;;4917340;29;20223;-69
2022/11/11 10:12:36;;;;;;;1.63;0.80;;;12.30;99.90;;;;;;4917001;29;20216;-69
2022/11/11 10:15:05;;;;;;;1.67;0.90;;;12.30;99.90;;;;;;4917086;29;20213;-70
2022/11/11 10:17:38;;;;;;;1.70;1.20;;;12.20;99.90;;;;;;4916807;29;20230;-70
2022/11/11 10:20:13;;;;;;;1.97;1.00;;;12.20;99.90;;;;;;4917377;29;20564;-71
2022/11/11 10:22:42;;;;;;;1.90;1.27;;;12.30;99.90;;;;;;4917029;29;20570;-70
2022/11/11 10:25:20;;;;;;;2.97;0.97;;;12.30;99.90;;;;;;4917122;29;20210;-69
2022/11/11 10:27:52;;;;;;;1.30;0.87;;;12.40;99.90;;;;;;4917091;29;20233;-71
2022/11/11 10:30:24;;;;;;;1.10;0.70;;;12.40;99.90;;;;;;4917091;29;20549;-70
2022/11/11 10:32:57;;;;;;;1.63;0.80;;;12.40;99.90;;;;;;4917189;29;20205;-70
2022/11/11 10:35:25;;;;;;;1.23;0.80;;;12.50;99.90;;;;;;4917000;29;20209;-70
2022/11/11 10:38:01;;;;;;;2.40;0.47;;;12.60;99.90;;;;;;4917040;29;20327;-72
2022/11/11 10:40:34;;;;;;;1.10;0.70;;;12.60;99.90;;;;;;4912664;29;20217;-74
2022/11/11 10:43:02;;;;;;;0.80;0.60;;;12.60;99.90;;;;;;4896709;29;20252;-76
2022/11/11 10:45:35;;;;;;;0.90;0.47;;;12.60;99.90;;;;;;4896699;29;20210;-74
2022/11/11 10:48:07;;;;;;;2.00;0.93;;;12.70;99.90;;;;;;4896556;29;20230;-74
2022/11/11 10:50:37;;;;;;;1.07;0.60;;;12.80;99.90;;;;;;4904173;29;20212;-72
2022/11/11 10:53:13;;;;;;;0.90;0.60;;;12.90;99.90;;;;;;4915716;29;20534;-70
2022/11/11 10:55:45;;;;;;;0.80;0.60;;;13.00;99.90;;;;;;4916716;29;20216;-73
2022/11/11 10:58:19;;;;;;;0.90;0.50;;;13.00;99.90;;;;;;4916519;29;20229;-72
2022/11/11 11:00:48;;;;;;;0.80;0.40;;;13.20;99.90;;;;;;4913693;29;20205;-73
2022/11/11 11:03:21;;;;;;;0.77;0.40;;;13.30;99.90;;;;;;4908316;29;20688;-74
2022/11/11 11:05:53;;;;;;;0.97;0.50;;;13.40;99.90;;;;;;4907066;29;20212;-74
2022/11/11 11:08:23;;;;;;;1.83;0.30;;;13.40;99.90;;;;;;4916689;29;20230;-70
2022/11/11 11:10:55;;;;;;;1.50;0.60;;;13.30;99.90;;;;;;4913507;29;20666;-74
2022/11/11 11:13:31;;;;;;;1.57;0.40;;;13.30;99.90;;;;;;4905658;29;20202;-74
2022/11/11 11:16:03;;;;;;;0.87;0.40;;;13.30;99.90;;;;;;4908306;29;20221;-73
2022/11/11 11:18:31;;;;;;;1.90;0.50;;;13.40;99.90;;;;;;4917899;29;20230;-71
2022/11/11 11:20:59;;;;;;;1.80;0.37;;;13.40;99.90;;;;;;4920642;29;20212;-74
2022/11/11 11:23:37;;;;;;;1.53;0.50;;;13.50;99.90;;;;;;4916183;29;20240;-70
2022/11/11 11:26:04;;;;;;;1.17;0.50;;;13.60;99.90;;;;;;4920158;29;20253;-71
2022/11/11 11:28:34;;;;;;;2.33;0.50;;;13.70;99.90;;;;;;4920271;29;20239;-71
2022/11/11 11:31:02;;;;;;;0.97;0.50;;;13.70;99.90;;;;;;4920521;29;20569;-70
2022/11/11 11:33:50;;;;;;;1.50;0.40;;;13.80;99.90;;;;;;4922525;29;20226;-71
2022/11/11 11:36:18;;;;;;;1.20;0.60;;;13.70;99.90;;;;;;4939059;29;20208;-69
2022/11/11 11:38:46;;;;;;;1.10;0.63;;;13.70;99.90;;;;;;4939093;29;20228;-69
2022/11/11 11:41:13;;;;;;;1.13;0.40;;;13.70;99.90;;;;;;4925503;29;20213;-70
2022/11/11 11:43:42;;;;;;;1.13;0.50;;;13.70;99.90;;;;;;4919924;29;20256;-72
2022/11/11 11:46:18;;;;;;;0.80;0.50;;;13.80;99.90;;;;;;4920214;29;20213;-69
2022/11/11 11:49:01;;;;;;;2.20;0.60;;;14.00;99.90;;;;;;4920137;29;20233;-69
2022/11/11 11:51:35;;;;;;;1.27;0.50;;;14.10;99.90;;;;;;4919398;29;20213;-70
2022/11/11 11:54:30;;;;;;;1.53;0.70;;;14.30;99.90;;;;;;4920035;29;20213;-70
2022/11/11 11:57:02;;;;;;;0.83;0.60;;;14.40;99.90;;;;;;4919681;29;20205;-71
2022/11/11 11:59:38;;;;;;;1.73;0.73;;;14.60;99.90;;;;;;4920188;29;20209;-70
2022/11/11 12:02:16;;;;;;;0.70;0.57;;;14.70;99.90;;;;;;4919866;29;20206;-70
2022/11/11 12:05:00;;;;;;;0.97;0.60;;;14.80;99.90;;;;;;4919752;29;20661;-70
2022/11/11 12:07:42;;;;;;;2.30;0.50;;;14.80;99.90;;;;;;4919544;29;20257;-71
2022/11/11 12:10:20;;;;;;;2.83;0.60;;;14.80;99.90;;;;;;4919648;29;20216;-70
2022/11/11 12:12:55;;;;;;;2.03;0.73;;;14.80;99.90;;;;;;4919379;29;20673;-70
2022/11/11 12:15:31;;;;;;;0.83;0.33;;;14.90;99.90;;;;;;4919856;29;20217;-70
2022/11/11 12:18:17;;;;;;;1.10;0.40;;;15.00;99.90;;;;;;4919486;29;20224;-70
2022/11/11 12:20:51;;;;;;;0.80;0.50;;;15.10;99.90;;;;;;4919026;29;20214;-70
2022/11/11 12:23:49;;;;;;;1.40;0.60;;;15.30;99.90;;;;;;4915443;29;20253;-70
2022/11/11 12:26:24;;;;;;;1.63;0.40;;;15.30;99.90;;;;;;4918814;29;20229;-70
2022/11/11 12:29:07;;;;;;;0.73;0.50;;;15.40;99.90;;;;;;4918515;29;20229;-72
2022/11/11 12:31:47;;;;;;;1.27;0.40;;;15.40;99.90;;;;;;4918873;29;20645;-74
2022/11/11 12:34:31;;;;;;;2.57;0.50;;;15.40;99.90;;;;;;4919283;29;20213;-73
2022/11/11 12:37:04;;;;;;;3.83;0.63;;;15.20;99.90;;;;;;4918978;29;20210;-74
2022/11/11 12:40:00;;;;;;;1.07;0.40;;;15.20;99.90;;;;;;4918584;29;20220;-74
2022/11/11 12:42:45;;;;;;;0.67;0.50;;;15.20;99.90;;;;;;4918238;29;20225;-74
2022/11/11 12:45:18;;;;;;;0.90;0.70;;;15.40;99.90;;;;;;4910537;29;20266;-74
2022/11/11 12:47:57;;;;;;;0.70;0.50;;;15.60;99.90;;;;;;4911090;29;20236;-74
2022/11/11 12:50:30;;;;;;;1.57;1.23;;;15.60;99.90;;;;;;4904588;29;20218;-74
2022/11/11 12:53:07;;;;;;;0.80;0.30;;;15.50;99.90;;;;;;4913516;29;20744;-73
2022/11/11 12:55:40;;;;;;;0.60;0.40;;;15.60;99.90;;;;;;4918770;29;20208;-74
2022/11/11 12:58:28;;;;;;;0.90;0.50;;;15.70;99.90;;;;;;4918347;29;20230;-74
2022/11/11 13:01:09;;;;;;;0.90;0.40;;;15.60;99.90;;;;;;4918334;29;20216;-72
2022/11/11 13:03:54;;;;;;;1.83;0.67;;;15.60;99.90;;;;;;4918460;29;20238;-73
2022/11/11 13:06:51;;;;;;;1.90;0.70;;;15.50;99.90;;;;;;4918336;29;20561;-75
2022/11/11 13:09:37;;;;;;;1.43;0.60;;;15.30;99.90;;;;;;4906439;29;20206;-73
2022/11/11 13:12:11;;;;;;;2.13;0.60;;;15.40;99.90;;;;;;4918543;29;20693;-71
2022/11/11 13:14:51;;;;;;;2.17;0.60;;;15.30;99.90;;;;;;4918666;29;20213;-73
2022/11/11 13:17:18;;;;;;;2.37;0.67;;;15.10;99.90;;;;;;4918813;29;20230;-74
2022/11/11 13:19:51;;;;;;;2.10;0.60;;;15.20;99.90;;;;;;4918394;29;20669;-74
2022/11/11 13:22:22;;;;;;;1.27;0.57;;;15.20;99.90;;;;;;4918085;29;20216;-74
2022/11/11 13:24:50;;;;;;;1.13;0.60;;;15.20;99.90;;;;;;4918371;29;20209;-75
2022/11/11 13:27:23;;;;;;;1.03;0.80;;;15.10;99.90;;;;;;4918146;29;20236;-74
2022/11/11 13:30:20;;;;;;;1.67;1.37;;;15.10;99.90;;;;;;4918543;29;20235;-74
2022/11/11 13:32:50;;;;;;;1.67;0.50;;;15.00;99.90;;;;;;4918229;29;20669;-75
2022/11/11 13:35:24;;;;;;;1.30;0.57;;;15.00;99.90;;;;;;4912380;29;20210;-77
2022/11/11 13:37:51;;;;;;;0.87;0.50;;;14.90;99.90;;;;;;4917658;29;20229;-75
2022/11/11 13:40:32;;;;;;;2.00;0.80;;;15.00;99.90;;;;;;4917799;29;20314;-76
2022/11/11 13:42:59;;;;;;;1.93;0.50;;;15.00;99.90;;;;;;4898530;29;20238;-75
2022/11/11 13:45:30;;;;;;;1.10;0.67;;;15.10;99.90;;;;;;4907948;29;20220;-73
2022/11/11 13:47:57;;;;;;;1.23;0.70;;;15.10;99.90;;;;;;4917956;29;20229;-73
2022/11/11 13:50:29;;;;;;;1.30;0.60;;;15.00;99.90;;;;;;4918116;29;20213;-75
2022/11/11 13:53:00;;;;;;;3.53;0.87;;;14.90;99.90;;;;;;4917838;29;20213;-75
2022/11/11 13:55:32;;;;;;;1.30;0.60;;;14.90;99.90;;;;;;4912676;29;20210;-77
2022/11/11 13:58:00;;;;;;;3.30;0.80;;;14.90;99.90;;;;;;4917241;29;20229;-75
2022/11/11 14:00:30;;;;;;;1.33;0.60;;;15.10;99.90;;;;;;4917635;29;20232;-75
2022/11/11 14:03:33;;;;;;;1.97;0.60;;;15.20;99.90;;;;;;4917877;29;20233;-75
2022/11/11 14:06:49;;;;;;;9.40;1.20;;;15.10;99.90;;;;;;4917392;29;20213;-74
2022/11/11 14:09:55;;;;;;;3.00;0.80;;;15.20;99.90;;;;;;4917812;29;20217;-75
2022/11/11 14:12:38;;;;;;;1.07;0.57;;;15.20;99.90;;;;;;4899358;29;20289;-76
2022/11/11 14:15:07;;;;;;;1.30;0.60;;;15.10;99.90;;;;;;4898562;29;20305;-74
2022/11/11 14:17:35;;;;;;;3.27;0.73;;;15.20;99.90;;;;;;4898175;29;20656;-75
2022/11/11 14:20:34;;;;;;;2.63;0.60;;;15.10;99.90;;;;;;4898632;29;20211;-76
2022/11/11 14:23:22;;;;;;;1.93;0.73;;;15.00;99.90;;;;;;4898296;29;20566;-73
2022/11/11 14:25:50;;;;;;;2.33;0.60;;;15.10;99.90;;;;;;4915342;29;20209;-75
2022/11/11 14:28:26;;;;;;;3.20;0.70;;;15.10;99.90;;;;;;4917289;29;20229;-73
2022/11/11 14:30:53;;;;;;;3.03;0.70;;;15.00;99.90;;;;;;4917179;29;20213;-74
2022/11/11 14:33:42;;;;;;;2.37;0.93;;;15.00;99.90;;;;;;4917394;29;20308;-72
2022/11/11 14:36:19;;;;;;;2.30;1.03;;;14.90;99.90;;;;;;4917273;29;20209;-74
2022/11/11 14:38:53;;;;;;;5.70;1.77;;;14.80;99.90;;;;;;4917261;29;20229;-75
2022/11/11 14:41:46;;;;;;;3.37;0.90;;;14.70;99.90;;;;;;4916592;29;20684;-75
2022/11/11 14:44:40;;;;;;;4.30;1.00;;;14.60;99.90;;;;;;4916866;29;20268;-75
2022/11/11 14:47:24;;;;;;;3.73;1.03;;;14.50;99.90;;;;;;4916983;29;20232;-75
2022/11/11 14:49:54;;;;;;;3.57;1.00;;;14.50;99.90;;;;;;4916748;29;20216;-77
2022/11/11 14:52:28;;;;;;;7.27;1.40;;;14.50;99.90;;;;;;4916325;29;20261;-76
2022/11/11 14:55:01;;;;;;;5.60;1.43;;;14.50;99.90;;;;;;4916323;29;20219;-74
2022/11/11 14:57:34;;;;;;;5.07;1.13;;;14.40;99.90;;;;;;4911922;29;20233;-75
2022/11/11 15:00:05;;;;;;;4.07;1.13;;;14.40;99.90;;;;;;4916428;29;20219;-73
2022/11/11 15:02:36;;;;;;;2.50;1.50;;;14.30;99.90;;;;;;4916138;29;20216;-73
2022/11/11 15:05:06;;;;;;;4.63;0.90;;;14.30;99.90;;;;;;4916196;29;20249;-72
2022/11/11 15:07:45;;;;;;;5.80;0.93;;;14.20;99.90;;;;;;4915951;29;20264;-72
2022/11/11 15:10:20;;;;;;;2.13;1.10;;;14.10;99.90;;;;;;4916530;29;20295;-73
2022/11/11 15:13:07;;;;;;;3.70;1.53;;;14.00;99.90;;;;;;4916160;29;20224;-74
2022/11/11 15:15:41;;;;;;;1.43;1.00;;;13.90;99.90;;;;;;4915805;29;20220;-75
2022/11/11 15:18:33;;;;;;;4.23;1.30;;;13.80;99.90;;;;;;4915835;29;20732;-73
2022/11/11 15:21:07;;;;;;;3.63;1.77;;;13.70;99.90;;;;;;4916173;29;20228;-72
2022/11/11 15:23:42;;;;;;;2.70;1.27;;;13.70;99.90;;;;;;4916047;29;20361;-73
2022/11/11 15:26:17;;;;;;;4.20;1.80;;;13.50;99.90;;;;;;4916033;29;20588;-73
2022/11/11 15:29:03;;;;;;;2.07;1.43;;;13.60;99.90;;;;;;4916123;29;20240;-74
2022/11/11 15:31:35;;;;;;;2.30;1.00;;;13.50;99.90;;;;;;4916411;29;20216;-73
2022/11/11 15:34:16;;;;;;;1.30;1.00;;;13.50;99.90;;;;;;4915287;29;20280;-73
2022/11/11 15:36:52;;;;;;;1.57;0.90;;;13.40;99.90;;;;;;4915693;29;20210;-70
2022/11/11 15:39:24;;;;;;;2.03;1.03;;;13.30;99.90;;;;;;4915173;29;20208;-73
2022/11/11 15:41:52;;;;;;;4.13;1.40;;;13.20;99.90;;;;;;4915669;29;20225;-70
2022/11/11 15:44:22;;;;;;;1.93;1.20;;;13.20;99.90;;;;;;4915928;29;20237;-70
2022/11/11 15:46:52;;;;;;;2.03;1.10;;;13.10;99.90;;;;;;4915617;29;20214;-78
2022/11/11 15:49:37;;;;;;;2.23;1.07;;;13.00;99.90;;;;;;4916143;29;20214;-70
2022/11/11 15:52:04;;;;;;;3.47;1.00;;;12.80;99.90;;;;;;4915344;29;20269;-72
2022/11/11 15:54:33;;;;;;;3.33;1.27;;;12.70;99.90;;;;;;4916028;29;20222;-72
2022/11/11 15:57:00;;;;;;;2.37;1.03;;;12.60;99.90;;;;;;4915969;29;20220;-70
2022/11/11 15:59:34;;;;;;;2.00;1.37;;;12.50;99.90;;;;;;4916150;29;20210;-73
2022/11/11 16:02:08;;;;;;;1.53;1.00;;;12.40;99.90;;;;;;4916084;29;20205;-70
2022/11/11 16:04:35;;;;;;;1.07;0.90;;;12.30;99.90;;;;;;4917057;29;20233;-77
2022/11/11 16:07:02;;;;;;;1.20;0.90;;;12.20;99.90;;;;;;4920060;29;20673;-69
2022/11/11 16:09:30;;;;;;;1.93;1.30;;;12.10;99.90;;;;;;4919708;29;20217;-69
2022/11/11 16:11:58;;;;;;;1.83;0.87;;;12.00;99.90;;;;;;4919520;29;20216;-74
2022/11/11 16:14:31;;;;;;;2.13;1.20;;;11.90;99.90;;;;;;4920407;29;20214;-69
2022/11/11 16:17:01;;;;;;;4.57;1.07;;;11.80;99.90;;;;;;4919646;29;20217;-68
2022/11/11 16:19:34;;;;;;;3.60;1.10;;;11.70;99.90;;;;;;4919612;29;20660;-68
2022/11/11 16:22:06;;;;;;;2.07;1.00;;;11.60;99.90;;;;;;4919047;29;20209;-68
2022/11/11 16:24:36;;;;;;;3.87;1.40;;;11.50;99.90;;;;;;4919569;29;20247;-70
2022/11/11 16:27:05;;;;;;;4.30;1.40;;;11.40;99.90;;;;;;4919303;29;20225;-70
2022/11/11 16:29:36;;;;;;;1.97;1.13;;;11.40;99.90;;;;;;4919476;29;20209;-70
2022/11/11 16:32:33;;;;;;;3.57;1.33;;;11.30;99.90;;;;;;4919362;29;20588;-73
2022/11/11 16:35:02;;;;;;;2.47;1.20;;;11.10;99.90;;;;;;4919734;29;20216;-72
2022/11/11 16:37:29;;;;;;;3.33;1.03;;;11.10;99.90;;;;;;4918521;29;20230;-70
2022/11/11 16:39:56;;;;;;;2.97;1.13;;;11.00;99.90;;;;;;4918719;29;20296;-79
2022/11/11 16:42:24;;;;;;;1.93;1.10;;;10.90;99.90;;;;;;4911230;29;20214;-75
2022/11/11 16:44:56;;;;;;;2.37;1.13;;;10.80;99.90;;;;;;4917332;29;20253;-69
2022/11/11 16:47:50;;;;;;;2.23;1.30;;;10.80;99.90;;;;;;4911892;29;20239;-75
2022/11/11 16:50:22;;;;;;;4.47;1.63;;;10.70;99.90;;;;;;4859887;29;20685;-76
2022/11/11 16:52:53;;;;;;;3.97;1.70;;;10.60;99.90;;;;;;4911523;29;20216;-71
2022/11/11 16:55:24;;;;;;;5.97;1.60;;;10.60;99.90;;;;;;4900127;29;20218;-70
2022/11/11 16:57:51;;;;;;;2.43;1.47;;;10.50;99.90;;;;;;4911574;29;20265;-70
2022/11/11 17:00:21;;;;;;;3.80;1.70;;;10.50;99.90;;;;;;4899675;29;20661;-69
2022/11/11 17:02:49;;;;;;;4.67;2.23;;;10.40;99.90;;;;;;4906928;29;20218;-69
2022/11/11 17:05:16;;;;;;;3.47;1.60;;;10.30;99.90;;;;;;4918168;29;20239;-70
2022/11/11 17:07:44;;;;;;;3.80;2.03;;;10.30;99.90;;;;;;4918303;29;20229;-68
2022/11/11 17:10:14;;;;;;;4.63;2.23;;;10.20;99.90;;;;;;4920079;29;20212;-69
2022/11/11 17:12:42;;;;;;;5.73;2.43;;;10.20;99.90;;;;;;4917764;29;20229;-71
2022/11/11 17:15:11;;;;;;;4.57;2.23;;;10.10;99.90;;;;;;4917768;29;20210;-72
2022/11/11 17:17:39;;;;;;;4.23;2.23;;;10.10;99.90;;;;;;4916360;29;20221;-70
2022/11/11 17:20:09;;;;;;;5.87;2.10;;;10.10;99.90;;;;;;4913133;29;20206;-68
2022/11/11 17:22:36;;;;;;;4.37;2.47;;;10.00;99.90;;;;;;4911456;29;20216;-69
2022/11/11 17:25:05;;;;;;;6.17;2.47;;;10.00;99.90;;;;;;4907155;29;20277;-69
2022/11/11 17:27:32;;;;;;;7.30;2.80;;;9.90;99.90;;;;;;4916592;29;20232;-69
2022/11/11 17:29:59;;;;;;;7.17;3.13;;;9.90;99.90;;;;;;4916911;29;20691;-68
2022/11/11 17:32:25;;;;;;;7.63;3.73;;;9.90;99.90;;;;;;4917286;29;20228;-69
2022/11/11 17:34:52;;;;;;;6.33;3.50;;;9.80;99.90;;;;;;4916650;29;20197;-69
2022/11/11 17:37:19;;;;;;;5.13;3.40;;;9.80;99.90;;;;;;4916092;29;20229;-69
2022/11/11 17:39:46;;;;;;;6.53;3.70;;;9.70;99.90;;;;;;4917314;29;20214;-68
2022/11/11 17:42:14;;;;;;;9.17;4.33;;;9.70;99.90;;;;;;4914515;29;20572;-68
2022/11/11 17:44:41;;;;;;;8.30;3.57;;;9.70;99.90;;;;;;4917007;29;20233;-68
2022/11/11 17:47:08;;;;;;;6.53;3.27;;;9.70;99.90;;;;;;4916042;29;20232;-72
2022/11/11 17:49:34;;;;;;;6.13;3.60;;;9.60;99.90;;;;;;4914780;29;20209;-76
2022/11/11 17:52:01;;;;;;;6.90;3.60;;;9.60;99.90;;;;;;4913598;29;20680;-70
2022/11/11 17:54:28;;;;;;;6.47;3.37;;;9.60;99.90;;;;;;4917651;29;20676;-70
2022/11/11 17:56:55;;;;;;;8.03;4.27;;;9.60;99.90;;;;;;4917185;29;20672;-74
2022/11/11 17:59:24;;;;;;;8.60;3.93;;;9.50;99.90;;;;;;4917808;29;20229;-74
2022/11/11 18:01:51;;;;;;;9.43;3.90;;;9.50;99.90;;;;;;4917523;29;20205;-74
2022/11/11 18:04:18;;;;;;;7.10;3.90;;;9.50;99.90;;;;;;4917179;29;20237;-70
2022/11/11 18:06:45;;;;;;;7.37;3.40;;;9.50;99.90;;;;;;4917309;29;20214;-69
2022/11/11 18:09:11;;;;;;;5.63;3.50;;;9.40;99.90;;;;;;4917627;29;20699;-70
2022/11/11 18:11:38;;;;;;;7.73;4.27;;;9.40;99.90;;;;;;4917362;29;20212;-69
2022/11/11 18:14:05;;;;;;;7.57;4.57;;;9.40;99.90;;;;;;4917626;29;20217;-73
2022/11/11 18:16:33;;;;;;;7.67;4.23;;;9.40;99.90;;;;;;4917318;29;20216;-70
2022/11/11 18:19:01;;;;;;;8.00;4.33;;;9.30;99.90;;;;;;4917225;29;20245;-70
2022/11/11 18:21:28;;;;;;;9.23;4.20;;;9.30;99.90;;;;;;4917515;29;20212;-73
2022/11/11 18:23:57;;;;;;;10.47;4.77;;;9.20;99.90;;;;;;4917329;29;20213;-71
2022/11/11 18:26:23;;;;;;;9.97;5.00;;;9.20;99.90;;;;;;4910857;29;20217;-75
2022/11/11 18:28:50;;;;;;;12.20;5.20;;;9.30;99.90;;;;;;4916878;29;20225;-80
2022/11/11 18:31:17;;;;;;;11.80;4.73;;;9.20;99.90;;;;;;4916760;29;20206;-74
2022/11/11 18:33:46;;;;;;;14.83;5.10;;;9.20;99.90;;;;;;4916988;29;20206;-71
2022/11/11 18:36:14;;;;;;;9.40;4.70;;;9.10;99.90;;;;;;4916804;29;20214;-73
2022/11/11 18:38:41;;;;;;;11.83;5.60;;;9.10;99.90;;;;;;4917436;29;20229;-73
2022/11/11 18:41:10;;;;;;;12.97;6.13;;;9.10;99.90;;;;;;4916698;29;20221;-81
2022/11/11 18:43:40;;;;;;;11.57;5.77;;;9.00;99.90;;;;;;4916975;29;20277;-84
2022/11/11 18:46:08;;;;;;;11.40;5.70;;;9.00;99.90;;;;;;4916887;29;20249;-83
2022/11/11 18:48:35;;;;;;;10.47;4.83;;;9.00;99.90;;;;;;4917760;29;20233;-81
2022/11/11 18:51:04;;;;;;;10.67;5.33;;;8.90;99.90;;;;;;4917152;29;20205;-80
2022/11/11 18:53:32;;;;;;;12.53;5.60;;;8.90;99.90;;;;;;4917497;29;20807;-82
2022/11/11 18:56:04;;;;;;;12.83;5.80;;;8.90;99.90;;;;;;4917109;29;20265;-82
2022/11/11 18:58:32;;;;;;;10.87;5.20;;;8.90;99.90;;;;;;4916569;29;20589;-70
2022/11/11 19:01:11;;;;;;;10.40;5.20;;;8.80;99.90;;;;;;4922165;29;20223;-70
2022/11/11 19:03:41;;;;;;;14.87;6.03;;;8.80;99.90;;;;;;4924368;29;20219;-78
2022/11/11 19:06:10;;;;;;;12.00;6.60;;;8.80;99.90;;;;;;4921093;29;20750;-73
2022/11/11 19:08:38;;;;;;;11.50;6.00;;;8.70;99.90;;;;;;4922325;29;20260;-81
2022/11/11 19:11:06;;;;;;;10.63;6.00;;;8.80;99.90;;;;;;4915571;29;20213;-78
2022/11/11 19:13:34;;;;;;;15.20;6.47;;;8.70;99.90;;;;;;4916593;29;20210;-84
2022/11/11 19:16:06;;;;;;;13.77;6.10;;;8.60;99.90;;;;;;4916754;29;20680;-75
2022/11/11 19:18:33;;;;;;;12.53;5.90;;;8.60;99.90;;;;;;4916187;29;20240;-73
2022/11/11 19:21:06;;;;;;;12.83;6.07;;;8.60;99.90;;;;;;4916578;29;20288;-74
2022/11/11 19:23:34;;;;;;;14.93;6.57;;;8.50;99.90;;;;;;4909106;29;20273;-72
2022/11/11 19:26:01;;;;;;;13.83;5.93;;;8.50;99.90;;;;;;4907948;29;20736;-73
2022/11/11 19:28:28;;;;;;;11.70;6.03;;;8.50;99.90;;;;;;4916407;29;20225;-76
2022/11/11 19:30:54;;;;;;;11.47;6.07;;;8.50;99.90;;;;;;4916697;29;20221;-68
2022/11/11 19:33:21;;;;;;;13.13;6.10;;;8.50;99.90;;;;;;4916665;29;20680;-68
2022/11/11 19:35:58;;;;;;;12.80;6.20;;;8.40;99.90;;;;;;4916384;29;20218;-68
2022/11/11 19:38:25;;;;;;;14.47;5.47;;;8.50;99.90;;;;;;4916899;29;20229;-68
2022/11/11 19:40:53;;;;;;;11.23;5.63;;;8.50;99.90;;;;;;4919863;29;20220;-70
2022/11/11 19:43:20;;;;;;;12.13;6.30;;;8.50;99.90;;;;;;4919903;29;20574;-79
2022/11/11 19:45:47;;;;;;;9.27;4.70;;;8.60;99.90;;;;;;4920105;29;20255;-68
2022/11/11 19:48:14;;;;;;;11.27;5.07;;;8.60;99.90;;;;;;4920357;29;20265;-69
2022/11/11 19:50:42;;;;;;;19.10;8.83;;;8.70;99.90;;;;;;4912191;29;20225;-70
2022/11/11 19:53:11;;;;;;;14.67;5.70;;;8.70;99.90;;;;;;4914706;29;20677;-71
2022/11/11 19:55:38;;;;;;;8.37;4.67;;;8.80;99.90;;;;;;4920305;29;20220;-69
2022/11/11 19:58:07;;;;;;;9.67;4.40;;;8.90;99.90;;;;;;4919918;29;20236;-74
2022/11/11 20:00:34;;;;;;;8.00;3.97;;;9.00;99.90;;;;;;4920139;29;20213;-78
2022/11/11 20:03:02;;;;;;;10.20;4.37;;;9.10;99.90;;;;;;4909917;29;20216;-74
2022/11/11 20:05:29;;;;;;;6.53;3.97;;;9.10;99.90;;;;;;4908260;29;20701;-74
2022/11/11 20:07:56;;;;;;;8.43;3.83;;;9.10;99.90;;;;;;4910160;29;20233;-77
2022/11/11 20:10:23;;;;;;;8.37;4.17;;;9.10;99.90;;;;;;4913776;29;20232;-69
2022/11/11 20:12:51;;;;;;;5.13;3.50;;;9.20;99.90;;;;;;4907531;29;20225;-74
2022/11/11 20:15:20;;;;;;;5.77;3.53;;;9.20;99.90;;;;;;4913289;29;20213;-68
2022/11/11 20:17:46;;;;;;;7.23;3.37;;;9.30;99.90;;;;;;4913155;29;20234;-68
2022/11/11 20:20:13;;;;;;;4.70;2.93;;;9.30;99.90;;;;;;4908673;29;20503;-69
2022/11/11 20:22:40;;;;;;;7.07;3.23;;;9.30;99.90;;;;;;4907518;29;20211;-76
2022/11/11 20:25:07;;;;;;;4.63;2.87;;;9.40;99.90;;;;;;4908938;29;20229;-70
2022/11/11 20:27:35;;;;;;;5.73;2.87;;;9.40;99.90;;;;;;4911600;29;20229;-70
2022/11/11 20:30:02;;;;;;;4.87;2.80;;;9.40;99.90;;;;;;4916915;29;20214;-76
2022/11/11 20:32:30;;;;;;;6.03;2.90;;;9.40;99.90;;;;;;4916826;29;20213;-78
2022/11/11 20:34:57;;;;;;;5.43;3.00;;;9.40;99.90;;;;;;4905553;29;20222;-76
2022/11/11 20:37:25;;;;;;;4.87;3.00;;;9.50;99.90;;;;;;4912807;29;20230;-77
2022/11/11 20:39:52;;;;;;;4.80;2.77;;;9.50;99.90;;;;;;4907337;29;20649;-77
2022/11/11 20:42:19;;;;;;;5.10;2.90;;;9.50;99.90;;;;;;4911079;29;20219;-77
2022/11/11 20:44:46;;;;;;;4.60;2.70;;;9.50;99.90;;;;;;4905978;29;20233;-71
2022/11/11 20:47:13;;;;;;;5.67;2.70;;;9.50;99.90;;;;;;4906530;29;20230;-72
2022/11/11 20:49:42;;;;;;;4.77;2.90;;;9.50;99.90;;;;;;4906265;29;20206;-79
2022/11/11 20:52:10;;;;;;;7.80;3.50;;;9.50;99.90;;;;;;4912678;29;20232;-73
2022/11/11 20:54:37;;;;;;;4.90;2.77;;;9.50;99.90;;;;;;4910282;29;20207;-73
2022/11/11 20:57:04;;;;;;;4.97;2.93;;;9.50;99.90;;;;;;4904412;29;20231;-72
2022/11/11 20:59:31;;;;;;;6.03;2.90;;;9.50;99.90;;;;;;4907789;29;20237;-77
2022/11/11 21:01:57;;;;;;;5.40;3.07;;;9.50;99.90;;;;;;4914763;29;20206;-70
2022/11/11 21:04:24;;;;;;;4.53;2.87;;;9.40;99.90;;;;;;4908893;29;20209;-70
2022/11/11 21:06:53;;;;;;;5.80;3.30;;;9.40;99.90;;;;;;4905570;29;20689;-69
2022/11/11 21:09:19;;;;;;;6.03;3.20;;;9.50;99.90;;;;;;4909128;29;20210;-68
2022/11/11 21:11:46;;;;;;;5.33;3.20;;;9.50;99.90;;;;;;4912979;29;20541;-69
2022/11/11 21:14:13;;;;;;;5.63;3.07;;;9.50;99.90;;;;;;4905364;29;20222;-69
2022/11/11 21:16:40;;;;;;;5.07;2.60;;;9.60;99.90;;;;;;4908465;29;20222;-68
2022/11/11 21:19:06;;;;;;;4.47;2.43;;;9.60;99.90;;;;;;4911181;29;20225;-68
2022/11/11 21:21:34;;;;;;;4.07;2.47;;;9.60;99.90;;;;;;4905155;29;20238;-68
2022/11/11 21:24:04;;;;;;;3.43;2.40;;;9.60;99.90;;;;;;4912539;29;20605;-69
2022/11/11 21:26:32;;;;;;;3.07;2.30;;;9.60;99.90;;;;;;4905660;29;20241;-68
2022/11/11 21:28:58;;;;;;;4.40;2.47;;;9.60;99.90;;;;;;4901374;29;20226;-70
2022/11/11 21:31:27;;;;;;;4.50;2.50;;;9.60;99.90;;;;;;4911014;29;20210;-68
2022/11/11 21:33:56;;;;;;;13.07;5.07;;;9.60;99.90;;;;;;4913291;29;20236;-70
2022/11/11 21:36:26;;;;;;;6.07;3.53;;;9.60;99.90;;;;;;4907299;29;20233;-68
2022/11/11 21:38:53;;;;;;;5.10;2.97;;;9.60;99.90;;;;;;4909575;29;20250;-69
2022/11/11 21:41:23;;;;;;;3.97;2.67;;;9.60;99.90;;;;;;4905047;29;20229;-69
2022/11/11 21:43:50;;;;;;;5.10;2.60;;;9.50;99.90;;;;;;4911800;29;20210;-69
2022/11/11 21:46:19;;;;;;;4.50;2.30;;;9.50;99.90;;;;;;4907307;29;20245;-68
2022/11/11 21:48:47;;;;;;;3.97;2.67;;;9.40;99.90;;;;;;4907401;29;20696;-68
2022/11/11 21:51:17;;;;;;;4.47;2.57;;;9.50;99.90;;;;;;4913247;29;20209;-82
2022/11/11 21:53:43;;;;;;;3.90;2.53;;;9.40;99.90;;;;;;4918076;29;20304;-70
2022/11/11 21:56:12;;;;;;;3.97;2.30;;;9.40;99.90;;;;;;4917872;29;20209;-68
2022/11/11 21:58:41;;;;;;;4.57;2.23;;;9.40;99.90;;;;;;4917969;29;20233;-68
2022/11/11 22:01:09;;;;;;;3.60;2.37;;;9.40;99.90;;;;;;4917924;29;20210;-69
2022/11/11 22:03:38;;;;;;;4.60;2.27;;;9.40;99.90;;;;;;4917488;29;20206;-68
2022/11/11 22:06:07;;;;;;;3.17;2.50;;;9.40;99.90;;;;;;4917701;29;20705;-68
2022/11/11 22:08:34;;;;;;;3.33;2.00;;;9.40;99.90;;;;;;4917670;29;20249;-68
2022/11/11 22:11:03;;;;;;;3.23;2.17;;;9.40;99.90;;;;;;4917805;29;20205;-69
2022/11/11 22:13:30;;;;;;;3.20;2.10;;;9.40;99.90;;;;;;4917619;29;20217;-70
2022/11/11 22:16:00;;;;;;;2.57;1.80;;;9.30;99.90;;;;;;4917723;29;20210;-68
2022/11/11 22:18:27;;;;;;;3.50;2.00;;;9.30;99.90;;;;;;4917585;29;20240;-68
2022/11/11 22:20:54;;;;;;;4.43;2.10;;;9.30;99.90;;;;;;4917690;29;20214;-76
2022/11/11 22:23:21;;;;;;;3.67;2.20;;;9.30;99.90;;;;;;4917720;29;20209;-70
2022/11/11 22:25:48;;;;;;;2.93;1.83;;;9.20;99.90;;;;;;4917608;29;20237;-68
2022/11/11 22:28:15;;;;;;;2.97;1.83;;;9.20;99.90;;;;;;4917233;29;20233;-71
2022/11/11 22:30:41;;;;;;;5.70;2.10;;;9.20;99.90;;;;;;4917370;29;20209;-68
2022/11/11 22:33:09;;;;;;;3.47;2.00;;;9.10;99.90;;;;;;4917333;29;20665;-68
2022/11/11 22:35:36;;;;;;;4.70;2.10;;;9.10;99.90;;;;;;4917565;29;20213;-77
2022/11/11 22:38:03;;;;;;;3.60;2.00;;;9.20;99.90;;;;;;4917581;29;20232;-68
